sensor_id;sensor_type;location;lat;lon;timestamp;temperature;humidity
27384;DHT22;14851;51.166;4.760;2023-04-22T00:00:00;8.50;99.90
27384;DHT22;14851;51.166;4.760;2023-04-22T00:02:26;8.40;99.90
27384;DHT22;14851;51.166;4.760;2023-04-22T00:04:53;8.40;99.90
27384;DHT22;14851;51.166;4.760;2023-04-22T00:07:22;8.50;99.90
27384;DHT22;14851;51.166;4.760;2023-04-22T00:09:48;8.50;99.90
27384;DHT22;14851;51.166;4.760;2023-04-22T00:12:14;8.50;99.90
27384;DHT22;14851;51.166;4.760;2023-04-22T00:14:40;8.50;99.90
27384;DHT22;14851;51.166;4.760;2023-04-22T00:17:05;8.40;99.90
27384;DHT22;14851;51.166;4.760;2023-04-22T00:19:32;8.40;99.90
27384;DHT22;14851;51.166;4.760;2023-04-22T00:21:58;8.30;99.90
27384;DHT22;14851;51.166;4.760;2023-04-22T00:24:27;8.40;99.90
27384;DHT22;14851;51.166;4.760;2023-04-22T00:26:52;8.40;99.90
27384;DHT22;14851;51.166;4.760;2023-04-22T00:29:20;8.40;99.90
27384;DHT22;14851;51.166;4.760;2023-04-22T00:31:46;8.40;99.90
27384;DHT22;14851;51.166;4.760;2023-04-22T00:34:12;8.40;99.90
27384;DHT22;14851;51.166;4.760;2023-04-22T00:36:38;8.30;99.90
27384;DHT22;14851;51.166;4.760;2023-04-22T00:39:04;8.30;99.90
27384;DHT22;14851;51.166;4.760;2023-04-22T00:41:33;8.20;99.90
27384;DHT22;14851;51.166;4.760;2023-04-22T00:44:02;8.20;99.90
27384;DHT22;14851;51.166;4.760;2023-04-22T00:46:28;8.20;99.90
27384;DHT22;14851;51.166;4.760;2023-04-22T00:48:55;8.10;99.90
27384;DHT22;14851;51.166;4.760;2023-04-22T00:51:22;8.10;99.90
27384;DHT22;14851;51.166;4.760;2023-04-22T00:53:48;8.10;99.90
27384;DHT22;14851;51.166;4.760;2023-04-22T00:56:14;8.10;99.90
27384;DHT22;14851;51.166;4.760;2023-04-22T00:58:40;8.10;99.90
27384;DHT22;14851;51.166;4.760;2023-04-22T01:01:06;8.10;99.90
27384;DHT22;14851;51.166;4.760;2023-04-22T01:03:35;8.10;99.90
27384;DHT22;14851;51.166;4.760;2023-04-22T01:06:03;8.10;99.90
27384;DHT22;14851;51.166;4.760;2023-04-22T01:08:32;8.10;99.90
27384;DHT22;14851;51.166;4.760;2023-04-22T01:10:58;8.10;99.90
27384;DHT22;14851;51.166;4.760;2023-04-22T01:13:24;8.20;99.90
27384;DHT22;14851;51.166;4.760;2023-04-22T01:15:52;8.10;99.90
27384;DHT22;14851;51.166;4.760;2023-04-22T01:18:22;8.10;99.90
27384;DHT22;14851;51.166;4.760;2023-04-22T01:20:48;8.10;99.90
27384;DHT22;14851;51.166;4.760;2023-04-22T01:23:19;8.10;99.90
27384;DHT22;14851;51.166;4.760;2023-04-22T01:25:46;8.10;99.90
27384;DHT22;14851;51.166;4.760;2023-04-22T01:28:17;8.00;99.90
27384;DHT22;14851;51.166;4.760;2023-04-22T01:30:45;8.00;99.90
27384;DHT22;14851;51.166;4.760;2023-04-22T01:33:14;8.00;99.90
27384;DHT22;14851;51.166;4.760;2023-04-22T01:35:40;7.90;99.90
27384;DHT22;14851;51.166;4.760;2023-04-22T01:38:08;7.80;99.90
27384;DHT22;14851;51.166;4.760;2023-04-22T01:40:38;7.90;99.90
27384;DHT22;14851;51.166;4.760;2023-04-22T01:43:04;7.80;99.90
27384;DHT22;14851;51.166;4.760;2023-04-22T01:45:34;7.80;99.90
27384;DHT22;14851;51.166;4.760;2023-04-22T01:48:01;7.70;99.90
27384;DHT22;14851;51.166;4.760;2023-04-22T01:50:27;7.70;99.90
27384;DHT22;14851;51.166;4.760;2023-04-22T01:52:55;7.70;99.90
27384;DHT22;14851;51.166;4.760;2023-04-22T01:55:24;7.70;99.90
27384;DHT22;14851;51.166;4.760;2023-04-22T01:57:50;7.70;99.90
27384;DHT22;14851;51.166;4.760;2023-04-22T02:00:17;7.70;99.90
27384;DHT22;14851;51.166;4.760;2023-04-22T02:02:46;7.70;99.90
27384;DHT22;14851;51.166;4.760;2023-04-22T02:05:14;7.70;99.90
27384;DHT22;14851;51.166;4.760;2023-04-22T02:07:44;7.70;99.90
27384;DHT22;14851;51.166;4.760;2023-04-22T02:10:13;7.70;99.90
27384;DHT22;14851;51.166;4.760;2023-04-22T02:12:39;7.70;99.90
27384;DHT22;14851;51.166;4.760;2023-04-22T02:15:05;7.70;99.90
27384;DHT22;14851;51.166;4.760;2023-04-22T02:17:36;7.70;99.90
27384;DHT22;14851;51.166;4.760;2023-04-22T02:20:05;7.70;99.90
27384;DHT22;14851;51.166;4.760;2023-04-22T02:22:32;7.70;99.90
27384;DHT22;14851;51.166;4.760;2023-04-22T02:24:58;7.60;99.90
27384;DHT22;14851;51.166;4.760;2023-04-22T02:27:25;7.60;99.90
27384;DHT22;14851;51.166;4.760;2023-04-22T02:29:51;7.70;99.90
27384;DHT22;14851;51.166;4.760;2023-04-22T02:32:16;7.70;99.90
27384;DHT22;14851;51.166;4.760;2023-04-22T02:34:42;7.70;99.90
27384;DHT22;14851;51.166;4.760;2023-04-22T02:37:12;7.70;99.90
27384;DHT22;14851;51.166;4.760;2023-04-22T02:39:38;7.70;99.90
27384;DHT22;14851;51.166;4.760;2023-04-22T02:42:07;7.60;99.90
27384;DHT22;14851;51.166;4.760;2023-04-22T02:44:33;7.60;99.90
27384;DHT22;14851;51.166;4.760;2023-04-22T02:47:00;7.60;99.90
27384;DHT22;14851;51.166;4.760;2023-04-22T02:49:25;7.60;99.90
27384;DHT22;14851;51.166;4.760;2023-04-22T02:51:52;7.70;99.90
27384;DHT22;14851;51.166;4.760;2023-04-22T02:54:17;7.70;99.90
27384;DHT22;14851;51.166;4.760;2023-04-22T02:56:43;7.70;99.90
27384;DHT22;14851;51.166;4.760;2023-04-22T02:59:10;7.70;99.90
27384;DHT22;14851;51.166;4.760;2023-04-22T03:01:39;7.60;99.90
27384;DHT22;14851;51.166;4.760;2023-04-22T03:04:11;7.70;99.90
27384;DHT22;14851;51.166;4.760;2023-04-22T03:06:38;7.70;99.90
27384;DHT22;14851;51.166;4.760;2023-04-22T03:09:04;7.60;99.90
27384;DHT22;14851;51.166;4.760;2023-04-22T03:11:31;7.60;99.90
27384;DHT22;14851;51.166;4.760;2023-04-22T03:13:57;7.60;99.90
27384;DHT22;14851;51.166;4.760;2023-04-22T03:16:25;7.60;99.90
27384;DHT22;14851;51.166;4.760;2023-04-22T03:18:55;7.60;99.90
27384;DHT22;14851;51.166;4.760;2023-04-22T03:21:20;7.60;99.90
27384;DHT22;14851;51.166;4.760;2023-04-22T03:23:49;7.60;99.90
27384;DHT22;14851;51.166;4.760;2023-04-22T03:26:18;7.60;99.90
27384;DHT22;14851;51.166;4.760;2023-04-22T03:28:44;7.60;99.90
27384;DHT22;14851;51.166;4.760;2023-04-22T03:31:10;7.50;99.90
27384;DHT22;14851;51.166;4.760;2023-04-22T03:33:36;7.50;99.90
27384;DHT22;14851;51.166;4.760;2023-04-22T03:36:09;7.50;99.90
27384;DHT22;14851;51.166;4.760;2023-04-22T03:38:37;7.50;99.90
27384;DHT22;14851;51.166;4.760;2023-04-22T03:41:06;7.50;99.90
27384;DHT22;14851;51.166;4.760;2023-04-22T03:43:38;7.50;99.90
27384;DHT22;14851;51.166;4.760;2023-04-22T03:46:07;7.50;99.90
27384;DHT22;14851;51.166;4.760;2023-04-22T03:48:38;7.50;99.90
27384;DHT22;14851;51.166;4.760;2023-04-22T03:51:10;7.50;99.90
27384;DHT22;14851;51.166;4.760;2023-04-22T03:53:39;7.50;99.90
27384;DHT22;14851;51.166;4.760;2023-04-22T03:56:06;7.40;99.90
27384;DHT22;14851;51.166;4.760;2023-04-22T03:58:36;7.40;99.90
27384;DHT22;14851;51.166;4.760;2023-04-22T04:01:05;7.40;99.90
27384;DHT22;14851;51.166;4.760;2023-04-22T04:03:31;7.50;99.90
27384;DHT22;14851;51.166;4.760;2023-04-22T04:06:00;7.50;99.90
27384;DHT22;14851;51.166;4.760;2023-04-22T04:08:29;7.50;99.90
27384;DHT22;14851;51.166;4.760;2023-04-22T04:10:57;7.50;99.90
27384;DHT22;14851;51.166;4.760;2023-04-22T04:13:28;7.40;99.90
27384;DHT22;14851;51.166;4.760;2023-04-22T04:16:19;7.50;99.90
27384;DHT22;14851;51.166;4.760;2023-04-22T04:18:52;7.40;99.90
27384;DHT22;14851;51.166;4.760;2023-04-22T04:21:26;7.40;99.90
27384;DHT22;14851;51.166;4.760;2023-04-22T04:23:54;7.40;99.90
27384;DHT22;14851;51.166;4.760;2023-04-22T04:26:26;7.40;99.90
27384;DHT22;14851;51.166;4.760;2023-04-22T04:29:06;7.40;99.90
27384;DHT22;14851;51.166;4.760;2023-04-22T04:31:34;7.40;99.90
27384;DHT22;14851;51.166;4.760;2023-04-22T04:34:00;7.40;99.90
27384;DHT22;14851;51.166;4.760;2023-04-22T04:36:29;7.40;99.90
27384;DHT22;14851;51.166;4.760;2023-04-22T04:39:05;7.40;99.90
27384;DHT22;14851;51.166;4.760;2023-04-22T04:41:33;7.40;99.90
27384;DHT22;14851;51.166;4.760;2023-04-22T04:44:01;7.40;99.90
27384;DHT22;14851;51.166;4.760;2023-04-22T04:46:35;7.40;99.90
27384;DHT22;14851;51.166;4.760;2023-04-22T04:49:03;7.40;99.90
27384;DHT22;14851;51.166;4.760;2023-04-22T04:51:40;7.40;99.90
27384;DHT22;14851;51.166;4.760;2023-04-22T04:54:07;7.40;99.90
27384;DHT22;14851;51.166;4.760;2023-04-22T04:56:38;7.40;99.90
27384;DHT22;14851;51.166;4.760;2023-04-22T04:59:04;7.40;99.90
27384;DHT22;14851;51.166;4.760;2023-04-22T05:01:32;7.40;99.90
27384;DHT22;14851;51.166;4.760;2023-04-22T05:04:02;7.40;99.90
27384;DHT22;14851;51.166;4.760;2023-04-22T05:06:31;7.40;99.90
27384;DHT22;14851;51.166;4.760;2023-04-22T05:09:02;7.50;99.90
27384;DHT22;14851;51.166;4.760;2023-04-22T05:11:28;7.50;99.90
27384;DHT22;14851;51.166;4.760;2023-04-22T05:13:56;7.50;99.90
27384;DHT22;14851;51.166;4.760;2023-04-22T05:16:32;7.50;99.90
27384;DHT22;14851;51.166;4.760;2023-04-22T05:19:01;7.50;99.90
27384;DHT22;14851;51.166;4.760;2023-04-22T05:21:28;7.50;99.90
27384;DHT22;14851;51.166;4.760;2023-04-22T05:23:54;7.60;99.90
27384;DHT22;14851;51.166;4.760;2023-04-22T05:26:26;7.60;99.90
27384;DHT22;14851;51.166;4.760;2023-04-22T05:28:52;7.60;99.90
27384;DHT22;14851;51.166;4.760;2023-04-22T05:31:19;7.70;99.90
27384;DHT22;14851;51.166;4.760;2023-04-22T05:33:46;7.70;99.90
27384;DHT22;14851;51.166;4.760;2023-04-22T05:36:13;7.80;99.90
27384;DHT22;14851;51.166;4.760;2023-04-22T05:38:39;7.80;99.90
27384;DHT22;14851;51.166;4.760;2023-04-22T05:41:10;7.80;99.90
27384;DHT22;14851;51.166;4.760;2023-04-22T05:43:38;7.80;99.90
27384;DHT22;14851;51.166;4.760;2023-04-22T05:46:12;7.90;99.90
27384;DHT22;14851;51.166;4.760;2023-04-22T05:48:45;7.90;99.90
27384;DHT22;14851;51.166;4.760;2023-04-22T05:51:39;7.90;99.90
27384;DHT22;14851;51.166;4.760;2023-04-22T05:54:10;8.00;99.90
27384;DHT22;14851;51.166;4.760;2023-04-22T05:56:38;8.00;99.90
27384;DHT22;14851;51.166;4.760;2023-04-22T05:59:04;8.10;99.90
27384;DHT22;14851;51.166;4.760;2023-04-22T06:01:35;8.20;99.90
27384;DHT22;14851;51.166;4.760;2023-04-22T06:04:07;8.20;99.90
27384;DHT22;14851;51.166;4.760;2023-04-22T06:06:34;8.20;99.90
27384;DHT22;14851;51.166;4.760;2023-04-22T06:09:00;8.30;99.90
27384;DHT22;14851;51.166;4.760;2023-04-22T06:11:28;8.30;99.90
27384;DHT22;14851;51.166;4.760;2023-04-22T06:13:54;8.40;99.90
27384;DHT22;14851;51.166;4.760;2023-04-22T06:16:21;8.40;99.90
27384;DHT22;14851;51.166;4.760;2023-04-22T06:18:47;8.50;99.90
27384;DHT22;14851;51.166;4.760;2023-04-22T06:21:13;8.50;99.90
27384;DHT22;14851;51.166;4.760;2023-04-22T06:23:40;8.50;99.90
27384;DHT22;14851;51.166;4.760;2023-04-22T06:26:06;8.60;99.90
27384;DHT22;14851;51.166;4.760;2023-04-22T06:28:34;8.60;99.90
27384;DHT22;14851;51.166;4.760;2023-04-22T06:31:09;8.60;99.90
27384;DHT22;14851;51.166;4.760;2023-04-22T06:33:37;8.70;99.90
27384;DHT22;14851;51.166;4.760;2023-04-22T06:36:05;8.70;99.90
27384;DHT22;14851;51.166;4.760;2023-04-22T06:38:33;8.80;99.90
27384;DHT22;14851;51.166;4.760;2023-04-22T06:41:23;8.90;99.90
27384;DHT22;14851;51.166;4.760;2023-04-22T06:43:51;8.90;99.90
27384;DHT22;14851;51.166;4.760;2023-04-22T06:46:39;9.00;99.90
27384;DHT22;14851;51.166;4.760;2023-04-22T06:49:20;9.00;99.90
27384;DHT22;14851;51.166;4.760;2023-04-22T06:51:58;9.00;99.90
27384;DHT22;14851;51.166;4.760;2023-04-22T06:54:24;9.00;99.90
27384;DHT22;14851;51.166;4.760;2023-04-22T06:56:50;9.10;99.90
27384;DHT22;14851;51.166;4.760;2023-04-22T06:59:17;9.10;99.90
27384;DHT22;14851;51.166;4.760;2023-04-22T07:01:45;9.20;99.90
27384;DHT22;14851;51.166;4.760;2023-04-22T07:04:12;9.20;99.90
27384;DHT22;14851;51.166;4.760;2023-04-22T07:06:42;9.20;99.90
27384;DHT22;14851;51.166;4.760;2023-04-22T07:09:09;9.20;99.90
27384;DHT22;14851;51.166;4.760;2023-04-22T07:11:37;9.30;99.90
27384;DHT22;14851;51.166;4.760;2023-04-22T07:14:13;9.30;99.90
27384;DHT22;14851;51.166;4.760;2023-04-22T07:16:39;9.30;99.90
27384;DHT22;14851;51.166;4.760;2023-04-22T07:19:05;9.30;99.90
27384;DHT22;14851;51.166;4.760;2023-04-22T07:21:31;9.40;99.90
27384;DHT22;14851;51.166;4.760;2023-04-22T07:23:59;9.40;99.90
27384;DHT22;14851;51.166;4.760;2023-04-22T07:26:25;9.50;99.90
27384;DHT22;14851;51.166;4.760;2023-04-22T07:28:51;9.60;99.90
27384;DHT22;14851;51.166;4.760;2023-04-22T07:31:18;9.70;99.90
27384;DHT22;14851;51.166;4.760;2023-04-22T07:33:44;9.70;99.90
27384;DHT22;14851;51.166;4.760;2023-04-22T07:36:12;9.80;99.90
27384;DHT22;14851;51.166;4.760;2023-04-22T07:38:38;9.80;99.90
27384;DHT22;14851;51.166;4.760;2023-04-22T07:41:04;9.90;99.90
27384;DHT22;14851;51.166;4.760;2023-04-22T07:43:30;10.00;99.90
27384;DHT22;14851;51.166;4.760;2023-04-22T07:45:56;10.00;99.90
27384;DHT22;14851;51.166;4.760;2023-04-22T07:48:26;10.00;99.90
27384;DHT22;14851;51.166;4.760;2023-04-22T07:50:52;10.10;99.90
27384;DHT22;14851;51.166;4.760;2023-04-22T07:53:20;10.10;99.90
27384;DHT22;14851;51.166;4.760;2023-04-22T07:55:48;10.20;99.90
27384;DHT22;14851;51.166;4.760;2023-04-22T07:58:15;10.30;99.90
27384;DHT22;14851;51.166;4.760;2023-04-22T08:00:41;10.30;99.90
27384;DHT22;14851;51.166;4.760;2023-04-22T08:03:06;10.30;99.90
27384;DHT22;14851;51.166;4.760;2023-04-22T08:05:33;10.40;99.90
27384;DHT22;14851;51.166;4.760;2023-04-22T08:08:01;10.40;99.90
27384;DHT22;14851;51.166;4.760;2023-04-22T08:10:27;10.40;99.90
27384;DHT22;14851;51.166;4.760;2023-04-22T08:12:54;10.50;99.90
27384;DHT22;14851;51.166;4.760;2023-04-22T08:15:20;10.60;99.90
27384;DHT22;14851;51.166;4.760;2023-04-22T08:17:45;10.60;99.90
27384;DHT22;14851;51.166;4.760;2023-04-22T08:20:14;10.70;99.90
27384;DHT22;14851;51.166;4.760;2023-04-22T08:22:43;10.70;99.90
27384;DHT22;14851;51.166;4.760;2023-04-22T08:25:10;10.80;99.90
27384;DHT22;14851;51.166;4.760;2023-04-22T08:27:38;10.80;99.90
27384;DHT22;14851;51.166;4.760;2023-04-22T08:30:05;10.80;99.90
27384;DHT22;14851;51.166;4.760;2023-04-22T08:32:31;10.90;99.90
27384;DHT22;14851;51.166;4.760;2023-04-22T08:34:57;11.00;99.90
27384;DHT22;14851;51.166;4.760;2023-04-22T08:37:24;11.10;99.90
27384;DHT22;14851;51.166;4.760;2023-04-22T08:39:52;11.10;99.90
27384;DHT22;14851;51.166;4.760;2023-04-22T08:42:23;11.30;99.90
27384;DHT22;14851;51.166;4.760;2023-04-22T08:44:49;11.30;99.90
27384;DHT22;14851;51.166;4.760;2023-04-22T08:47:15;11.30;99.90
27384;DHT22;14851;51.166;4.760;2023-04-22T08:49:44;11.40;99.90
27384;DHT22;14851;51.166;4.760;2023-04-22T08:52:11;11.50;99.90
27384;DHT22;14851;51.166;4.760;2023-04-22T08:54:41;11.60;99.90
27384;DHT22;14851;51.166;4.760;2023-04-22T08:57:07;11.70;99.90
27384;DHT22;14851;51.166;4.760;2023-04-22T08:59:36;11.80;99.90
27384;DHT22;14851;51.166;4.760;2023-04-22T09:02:04;11.80;99.90
27384;DHT22;14851;51.166;4.760;2023-04-22T09:04:32;11.80;99.90
27384;DHT22;14851;51.166;4.760;2023-04-22T09:06:59;11.80;99.90
27384;DHT22;14851;51.166;4.760;2023-04-22T09:09:29;11.90;99.90
27384;DHT22;14851;51.166;4.760;2023-04-22T09:11:58;11.90;99.90
27384;DHT22;14851;51.166;4.760;2023-04-22T09:14:25;12.10;99.90
27384;DHT22;14851;51.166;4.760;2023-04-22T09:16:51;12.10;99.90
27384;DHT22;14851;51.166;4.760;2023-04-22T09:19:17;12.10;99.90
27384;DHT22;14851;51.166;4.760;2023-04-22T09:21:45;12.20;99.90
27384;DHT22;14851;51.166;4.760;2023-04-22T09:24:11;12.20;99.90
27384;DHT22;14851;51.166;4.760;2023-04-22T09:26:40;12.20;99.90
27384;DHT22;14851;51.166;4.760;2023-04-22T09:29:06;12.20;99.90
27384;DHT22;14851;51.166;4.760;2023-04-22T09:31:35;12.30;99.90
27384;DHT22;14851;51.166;4.760;2023-04-22T09:34:05;12.40;99.90
27384;DHT22;14851;51.166;4.760;2023-04-22T09:36:32;12.50;99.90
27384;DHT22;14851;51.166;4.760;2023-04-22T09:39:06;12.60;99.90
27384;DHT22;14851;51.166;4.760;2023-04-22T09:41:38;12.70;99.90
27384;DHT22;14851;51.166;4.760;2023-04-22T09:44:09;12.70;99.90
27384;DHT22;14851;51.166;4.760;2023-04-22T09:46:35;12.80;99.90
27384;DHT22;14851;51.166;4.760;2023-04-22T09:49:01;12.80;99.90
27384;DHT22;14851;51.166;4.760;2023-04-22T09:51:30;12.80;99.90
27384;DHT22;14851;51.166;4.760;2023-04-22T09:54:06;12.80;99.90
27384;DHT22;14851;51.166;4.760;2023-04-22T09:56:51;12.80;99.90
27384;DHT22;14851;51.166;4.760;2023-04-22T09:59:26;12.80;99.90
27384;DHT22;14851;51.166;4.760;2023-04-22T10:01:57;12.90;99.90
27384;DHT22;14851;51.166;4.760;2023-04-22T10:04:25;12.90;99.90
27384;DHT22;14851;51.166;4.760;2023-04-22T10:06:52;12.90;99.90
27384;DHT22;14851;51.166;4.760;2023-04-22T10:09:21;12.90;99.90
27384;DHT22;14851;51.166;4.760;2023-04-22T10:11:48;13.00;99.90
27384;DHT22;14851;51.166;4.760;2023-04-22T10:14:15;12.90;99.90
27384;DHT22;14851;51.166;4.760;2023-04-22T10:16:44;12.90;99.90
27384;DHT22;14851;51.166;4.760;2023-04-22T10:19:15;13.00;99.90
27384;DHT22;14851;51.166;4.760;2023-04-22T10:21:43;13.00;99.90
27384;DHT22;14851;51.166;4.760;2023-04-22T10:24:17;13.00;99.90
27384;DHT22;14851;51.166;4.760;2023-04-22T10:26:57;13.00;99.90
27384;DHT22;14851;51.166;4.760;2023-04-22T10:29:24;13.00;99.90
27384;DHT22;14851;51.166;4.760;2023-04-22T10:32:02;13.00;99.90
27384;DHT22;14851;51.166;4.760;2023-04-22T10:34:31;13.00;99.90
27384;DHT22;14851;51.166;4.760;2023-04-22T10:37:07;13.00;99.90
27384;DHT22;14851;51.166;4.760;2023-04-22T10:39:34;13.00;99.90
27384;DHT22;14851;51.166;4.760;2023-04-22T10:44:29;13.00;99.90
27384;DHT22;14851;51.166;4.760;2023-04-22T10:47:12;13.00;99.90
27384;DHT22;14851;51.166;4.760;2023-04-22T10:49:49;13.00;99.90
27384;DHT22;14851;51.166;4.760;2023-04-22T10:52:27;13.00;99.90
27384;DHT22;14851;51.166;4.760;2023-04-22T10:57:20;12.90;99.90
27384;DHT22;14851;51.166;4.760;2023-04-22T10:59:53;12.90;99.90
27384;DHT22;14851;51.166;4.760;2023-04-22T11:02:21;12.90;99.90
27384;DHT22;14851;51.166;4.760;2023-04-22T11:04:47;12.90;99.90
27384;DHT22;14851;51.166;4.760;2023-04-22T11:17:31;13.00;99.90
27384;DHT22;14851;51.166;4.760;2023-04-22T11:19:57;13.00;99.90
27384;DHT22;14851;51.166;4.760;2023-04-22T11:22:23;13.00;99.90
27384;DHT22;14851;51.166;4.760;2023-04-22T11:24:59;13.10;99.90
27384;DHT22;14851;51.166;4.760;2023-04-22T11:27:27;13.10;99.90
27384;DHT22;14851;51.166;4.760;2023-04-22T11:30:17;13.10;99.90
27384;DHT22;14851;51.166;4.760;2023-04-22T11:32:59;13.10;99.90
27384;DHT22;14851;51.166;4.760;2023-04-22T11:35:30;13.10;99.90
27384;DHT22;14851;51.166;4.760;2023-04-22T11:38:04;13.10;99.90
27384;DHT22;14851;51.166;4.760;2023-04-22T11:40:34;13.20;99.90
27384;DHT22;14851;51.166;4.760;2023-04-22T11:43:04;13.20;99.90
27384;DHT22;14851;51.166;4.760;2023-04-22T11:45:33;13.20;99.90
27384;DHT22;14851;51.166;4.760;2023-04-22T11:48:00;13.20;99.90
27384;DHT22;14851;51.166;4.760;2023-04-22T11:50:32;13.20;99.90
27384;DHT22;14851;51.166;4.760;2023-04-22T11:53:02;13.20;99.90
27384;DHT22;14851;51.166;4.760;2023-04-22T11:55:38;13.20;99.90
27384;DHT22;14851;51.166;4.760;2023-04-22T11:58:08;13.30;99.90
27384;DHT22;14851;51.166;4.760;2023-04-22T12:00:49;13.20;99.90
27384;DHT22;14851;51.166;4.760;2023-04-22T12:03:19;13.20;99.90
27384;DHT22;14851;51.166;4.760;2023-04-22T12:08:15;13.10;99.90
27384;DHT22;14851;51.166;4.760;2023-04-22T12:10:45;13.10;99.90
27384;DHT22;14851;51.166;4.760;2023-04-22T12:13:44;13.10;99.90
27384;DHT22;14851;51.166;4.760;2023-04-22T12:16:18;13.10;99.90
27384;DHT22;14851;51.166;4.760;2023-04-22T12:18:51;13.10;99.90
27384;DHT22;14851;51.166;4.760;2023-04-22T12:21:19;13.10;99.90
27384;DHT22;14851;51.166;4.760;2023-04-22T12:23:56;13.10;99.90
27384;DHT22;14851;51.166;4.760;2023-04-22T12:26:23;13.10;99.90
27384;DHT22;14851;51.166;4.760;2023-04-22T12:28:52;13.10;99.90
27384;DHT22;14851;51.166;4.760;2023-04-22T12:31:19;13.00;99.90
27384;DHT22;14851;51.166;4.760;2023-04-22T12:33:45;13.10;99.90
27384;DHT22;14851;51.166;4.760;2023-04-22T12:36:11;13.10;99.90
27384;DHT22;14851;51.166;4.760;2023-04-22T12:38:37;13.10;99.90
27384;DHT22;14851;51.166;4.760;2023-04-22T12:41:06;13.10;99.90
27384;DHT22;14851;51.166;4.760;2023-04-22T12:43:35;13.10;99.90
27384;DHT22;14851;51.166;4.760;2023-04-22T12:46:02;13.10;99.90
27384;DHT22;14851;51.166;4.760;2023-04-22T12:48:30;13.10;99.90
27384;DHT22;14851;51.166;4.760;2023-04-22T12:51:00;13.10;99.90
27384;DHT22;14851;51.166;4.760;2023-04-22T12:53:26;13.20;99.90
27384;DHT22;14851;51.166;4.760;2023-04-22T12:55:54;13.20;99.90
27384;DHT22;14851;51.166;4.760;2023-04-22T12:58:25;13.20;99.90
27384;DHT22;14851;51.166;4.760;2023-04-22T13:00:51;13.20;99.90
27384;DHT22;14851;51.166;4.760;2023-04-22T13:03:17;13.20;99.90
27384;DHT22;14851;51.166;4.760;2023-04-22T13:05:45;13.20;99.90
27384;DHT22;14851;51.166;4.760;2023-04-22T13:08:14;13.30;99.90
27384;DHT22;14851;51.166;4.760;2023-04-22T13:10:41;13.30;99.90
27384;DHT22;14851;51.166;4.760;2023-04-22T13:13:07;13.30;99.90
27384;DHT22;14851;51.166;4.760;2023-04-22T13:15:33;13.40;99.90
27384;DHT22;14851;51.166;4.760;2023-04-22T13:17:59;13.40;99.90
27384;DHT22;14851;51.166;4.760;2023-04-22T13:20:26;13.40;99.90
27384;DHT22;14851;51.166;4.760;2023-04-22T13:22:53;13.40;99.90
27384;DHT22;14851;51.166;4.760;2023-04-22T13:25:18;13.40;99.90
27384;DHT22;14851;51.166;4.760;2023-04-22T13:27:44;13.40;99.90
27384;DHT22;14851;51.166;4.760;2023-04-22T13:30:13;13.40;99.90
27384;DHT22;14851;51.166;4.760;2023-04-22T13:32:39;13.40;99.90
27384;DHT22;14851;51.166;4.760;2023-04-22T13:35:05;13.40;99.90
27384;DHT22;14851;51.166;4.760;2023-04-22T13:37:33;13.40;99.90
27384;DHT22;14851;51.166;4.760;2023-04-22T13:39:59;13.40;99.90
27384;DHT22;14851;51.166;4.760;2023-04-22T13:42:25;13.40;99.90
27384;DHT22;14851;51.166;4.760;2023-04-22T13:44:53;13.40;99.90
27384;DHT22;14851;51.166;4.760;2023-04-22T13:47:18;13.50;99.90
27384;DHT22;14851;51.166;4.760;2023-04-22T13:49:47;13.50;99.90
27384;DHT22;14851;51.166;4.760;2023-04-22T13:52:13;13.40;99.90
27384;DHT22;14851;51.166;4.760;2023-04-22T13:54:42;13.40;99.90
27384;DHT22;14851;51.166;4.760;2023-04-22T13:57:10;13.40;99.90
27384;DHT22;14851;51.166;4.760;2023-04-22T13:59:42;13.40;99.90
27384;DHT22;14851;51.166;4.760;2023-04-22T14:02:10;13.40;99.90
27384;DHT22;14851;51.166;4.760;2023-04-22T14:04:40;13.40;99.90
27384;DHT22;14851;51.166;4.760;2023-04-22T14:07:07;13.40;99.90
27384;DHT22;14851;51.166;4.760;2023-04-22T14:09:34;13.40;99.90
27384;DHT22;14851;51.166;4.760;2023-04-22T14:11:59;13.40;99.90
27384;DHT22;14851;51.166;4.760;2023-04-22T14:14:25;13.40;99.90
27384;DHT22;14851;51.166;4.760;2023-04-22T14:16:51;13.40;99.90
27384;DHT22;14851;51.166;4.760;2023-04-22T14:19:17;13.40;99.90
27384;DHT22;14851;51.166;4.760;2023-04-22T14:21:43;13.40;99.90
27384;DHT22;14851;51.166;4.760;2023-04-22T14:24:09;13.40;99.90
27384;DHT22;14851;51.166;4.760;2023-04-22T14:26:34;13.40;99.90
27384;DHT22;14851;51.166;4.760;2023-04-22T14:29:00;13.50;99.90
27384;DHT22;14851;51.166;4.760;2023-04-22T14:31:27;13.40;99.90
27384;DHT22;14851;51.166;4.760;2023-04-22T14:33:53;13.40;99.90
27384;DHT22;14851;51.166;4.760;2023-04-22T14:36:19;13.40;99.90
27384;DHT22;14851;51.166;4.760;2023-04-22T14:38:45;13.40;99.90
27384;DHT22;14851;51.166;4.760;2023-04-22T14:41:11;13.30;99.90
27384;DHT22;14851;51.166;4.760;2023-04-22T14:43:37;13.30;99.90
27384;DHT22;14851;51.166;4.760;2023-04-22T14:46:05;13.30;99.90
27384;DHT22;14851;51.166;4.760;2023-04-22T14:48:33;13.30;99.90
27384;DHT22;14851;51.166;4.760;2023-04-22T14:51:00;13.20;99.90
27384;DHT22;14851;51.166;4.760;2023-04-22T14:53:31;13.20;99.90
27384;DHT22;14851;51.166;4.760;2023-04-22T14:56:00;13.20;99.90
27384;DHT22;14851;51.166;4.760;2023-04-22T14:58:28;13.10;99.90
27384;DHT22;14851;51.166;4.760;2023-04-22T15:00:57;13.00;99.90
27384;DHT22;14851;51.166;4.760;2023-04-22T15:03:27;13.00;99.90
27384;DHT22;14851;51.166;4.760;2023-04-22T15:05:53;13.00;99.90
27384;DHT22;14851;51.166;4.760;2023-04-22T15:08:19;13.00;99.90
27384;DHT22;14851;51.166;4.760;2023-04-22T15:10:46;13.00;99.90
27384;DHT22;14851;51.166;4.760;2023-04-22T15:13:11;12.90;99.90
27384;DHT22;14851;51.166;4.760;2023-04-22T15:15:39;12.90;99.90
27384;DHT22;14851;51.166;4.760;2023-04-22T15:18:07;12.90;99.90
27384;DHT22;14851;51.166;4.760;2023-04-22T15:20:36;12.80;99.90
27384;DHT22;14851;51.166;4.760;2023-04-22T15:23:02;12.80;99.90
27384;DHT22;14851;51.166;4.760;2023-04-22T15:25:31;12.80;99.90
27384;DHT22;14851;51.166;4.760;2023-04-22T15:27:56;12.80;99.90
27384;DHT22;14851;51.166;4.760;2023-04-22T15:30:26;12.70;99.90
27384;DHT22;14851;51.166;4.760;2023-04-22T15:32:52;12.70;99.90
27384;DHT22;14851;51.166;4.760;2023-04-22T15:35:18;12.60;99.90
27384;DHT22;14851;51.166;4.760;2023-04-22T15:37:44;12.60;99.90
27384;DHT22;14851;51.166;4.760;2023-04-22T15:40:10;12.60;99.90
27384;DHT22;14851;51.166;4.760;2023-04-22T15:42:36;12.60;99.90
27384;DHT22;14851;51.166;4.760;2023-04-22T15:45:05;12.60;99.90
27384;DHT22;14851;51.166;4.760;2023-04-22T15:50:01;12.70;99.90
27384;DHT22;14851;51.166;4.760;2023-04-22T15:52:36;12.80;99.90
27384;DHT22;14851;51.166;4.760;2023-04-22T15:55:02;12.90;99.90
27384;DHT22;14851;51.166;4.760;2023-04-22T15:57:28;13.00;99.90
27384;DHT22;14851;51.166;4.760;2023-04-22T16:00:07;13.10;99.90
27384;DHT22;14851;51.166;4.760;2023-04-22T16:02:40;13.20;99.90
27384;DHT22;14851;51.166;4.760;2023-04-22T16:05:06;13.10;99.90